createdAt,value
2018-03-15T00:01:12.712Z,78.60
2018-03-15T00:03:44.938Z,78.80
2018-03-15T00:06:14.456Z,77.50
2018-03-15T00:08:45.363Z,78.50
2018-03-15T00:11:14.825Z,78.30
2018-03-15T00:13:44.404Z,77.30
2018-03-15T00:16:14.074Z,78.10
2018-03-15T00:18:43.699Z,78.50
2018-03-15T00:21:14.834Z,79.70
2018-03-15T00:32:00.756Z,79.20
2018-03-15T00:34:31.284Z,78.60
2018-03-15T00:37:07.142Z,80.40
2018-03-15T00:39:36.752Z,78.50
2018-03-15T00:42:15.785Z,79.20
2018-03-15T00:50:45.303Z,79.30
2018-03-15T00:56:25.526Z,80.10
2018-03-15T00:58:54.961Z,79.80
2018-03-15T01:01:24.521Z,80.90
2018-03-15T01:04:19.252Z,79.50
2018-03-15T01:06:48.823Z,79.20
2018-03-15T01:09:18.302Z,80.00
2018-03-15T01:11:47.663Z,79.90
2018-03-15T01:14:44.383Z,80.30
2018-03-15T01:20:16.693Z,80.00
2018-03-15T01:29:04.378Z,80.90
2018-03-15T01:31:39.551Z,80.20
2018-03-15T01:34:09.011Z,80.30
2018-03-15T01:36:44.949Z,80.20
2018-03-15T01:39:33.949Z,80.30
2018-03-15T01:51:53.252Z,79.90
2018-03-15T01:54:45.592Z,80.20
2018-03-15T02:13:00.526Z,81.90
2018-03-15T02:22:00.010Z,81.00
2018-03-15T02:34:12.316Z,80.60
2018-03-15T02:43:46.558Z,80.70
2018-03-15T02:46:16.326Z,80.80
2018-03-15T02:48:45.965Z,80.70
2018-03-15T02:51:15.467Z,81.00
2018-03-15T02:54:15.323Z,81.40
2018-03-15T02:56:49.690Z,81.30
2018-03-15T03:08:20.364Z,79.10
2018-03-15T03:10:49.859Z,79.00
2018-03-15T03:13:19.365Z,78.90
2018-03-15T03:15:48.765Z,78.30
2018-03-15T03:18:18.129Z,78.60
2018-03-15T03:20:47.468Z,78.30
2018-03-15T03:26:39.934Z,78.00
2018-03-15T03:32:26.789Z,77.50
2018-03-15T03:34:56.073Z,78.00
2018-03-15T03:37:25.515Z,77.90
2018-03-15T03:46:10.837Z,76.60
2018-03-15T03:48:58.379Z,77.30
2018-03-15T03:51:27.875Z,76.30
2018-03-15T03:54:16.440Z,76.50
2018-03-15T04:00:15.464Z,75.60
2018-03-15T04:06:17.859Z,75.80
2018-03-15T04:09:14.292Z,76.00
2018-03-15T04:28:16.841Z,76.80
2018-03-15T04:34:16.772Z,77.50
2018-03-15T04:36:46.493Z,78.20
2018-03-15T04:39:45.084Z,79.00
2018-03-15T04:45:22.834Z,78.20
2018-03-15T04:47:52.416Z,77.90
2018-03-15T04:53:36.260Z,78.20
2018-03-15T04:59:14.274Z,77.30
2018-03-15T05:06:36.068Z,77.80
2018-03-15T05:09:33.076Z,77.00
2018-03-15T05:12:28.887Z,76.50
2018-03-15T05:15:15.498Z,76.40
2018-03-15T05:24:25.817Z,77.00
2018-03-15T05:26:55.209Z,77.50
2018-03-15T05:32:32.035Z,78.10
2018-03-15T05:35:01.569Z,78.70
2018-03-15T05:43:48.878Z,78.60
2018-03-15T05:49:35.682Z,78.90
2018-03-15T05:52:05.255Z,78.50
2018-03-15T05:54:34.839Z,79.10
2018-03-15T06:03:18.343Z,78.40
2018-03-15T06:05:47.696Z,77.50
2018-03-15T06:08:17.065Z,78.00
2018-03-15T06:10:46.528Z,76.60
2018-03-15T06:13:16.139Z,76.10
2018-03-15T06:15:51.380Z,75.70
2018-03-15T06:18:20.834Z,74.90
2018-03-15T06:20:50.236Z,74.60
2018-03-15T06:23:19.577Z,74.00
2018-03-15T06:25:48.882Z,72.30
2018-03-15T06:28:18.273Z,71.10
2018-03-15T06:30:47.901Z,69.30
2018-03-15T06:33:17.474Z,67.80
2018-03-15T06:35:46.961Z,66.00
2018-03-15T06:38:21.343Z,64.30
2018-03-15T06:40:51.491Z,64.70
2018-03-15T06:43:20.826Z,62.50
2018-03-15T06:45:50.399Z,61.00
2018-03-15T06:48:19.806Z,58.60
2018-03-15T06:50:49.184Z,58.10
2018-03-15T06:53:18.654Z,57.80
2018-03-15T06:55:48.868Z,57.90
2018-03-15T06:58:45.133Z,55.60
2018-03-15T07:01:17.190Z,54.50
2018-03-15T07:03:46.849Z,54.80
2018-03-15T07:06:17.061Z,54.00
2018-03-15T07:08:46.433Z,54.00
2018-03-15T07:11:15.807Z,52.80
2018-03-15T07:13:45.104Z,52.10
2018-03-15T07:16:14.456Z,53.70
2018-03-15T07:18:44.337Z,55.40
2018-03-15T07:21:17.332Z,56.90
2018-03-15T07:23:46.631Z,57.00
2018-03-15T07:29:23.542Z,58.40
2018-03-15T07:31:52.971Z,58.20
2018-03-15T07:34:22.484Z,56.60
2018-03-15T07:36:51.756Z,55.30
2018-03-15T07:39:21.108Z,52.20
2018-03-15T07:41:50.392Z,52.20
2018-03-15T07:44:19.688Z,51.20
2018-03-15T07:46:49.003Z,50.80
2018-03-15T07:49:18.291Z,49.40
2018-03-15T07:51:49.557Z,49.80
2018-03-15T07:54:18.940Z,48.20
2018-03-15T07:56:49.036Z,46.80
2018-03-15T07:59:18.626Z,47.40
2018-03-15T08:01:47.899Z,47.20
2018-03-15T08:04:18.069Z,46.80
2018-03-15T08:06:47.408Z,46.80
2018-03-15T08:09:16.712Z,46.50
2018-03-15T08:11:47.278Z,46.40
2018-03-15T08:14:16.547Z,46.20
2018-03-15T08:16:45.951Z,45.80
2018-03-15T08:19:15.251Z,46.00
2018-03-15T08:21:45.714Z,47.90
2018-03-15T08:24:15.069Z,47.90
2018-03-15T08:26:44.264Z,48.70
2018-03-15T08:29:14.205Z,49.30
2018-03-15T08:31:43.487Z,49.70
2018-03-15T08:34:12.812Z,49.20
2018-03-15T08:36:42.218Z,47.40
2018-03-15T08:39:11.515Z,45.30
2018-03-15T08:41:40.902Z,45.30
2018-03-15T08:44:10.327Z,46.90
2018-03-15T08:46:39.813Z,47.70
2018-03-15T08:49:09.115Z,47.10
2018-03-15T08:51:38.478Z,46.60
2018-03-15T08:54:07.811Z,46.10
2018-03-15T08:56:37.448Z,44.50
2018-03-15T08:59:06.711Z,45.90
2018-03-15T09:01:36.248Z,45.60
2018-03-15T09:04:05.643Z,45.10
2018-03-15T09:06:34.922Z,45.20
2018-03-15T09:09:04.241Z,45.20
2018-03-15T09:11:34.443Z,46.90
2018-03-15T09:14:03.708Z,46.40
2018-03-15T09:16:33.792Z,45.80
2018-03-15T09:19:04.104Z,45.90
2018-03-15T09:21:34.496Z,46.00
2018-03-15T09:24:08.179Z,46.00
2018-03-15T09:26:40.535Z,46.50
2018-03-15T09:29:10.092Z,46.70
2018-03-15T09:31:39.420Z,45.90
2018-03-15T09:34:09.495Z,44.70
2018-03-15T09:36:38.756Z,44.70
2018-03-15T09:39:09.691Z,45.50
2018-03-15T09:41:39.255Z,45.80
2018-03-15T09:44:08.539Z,44.20
2018-03-15T09:46:37.863Z,44.10
2018-03-15T09:49:08.082Z,43.80
2018-03-15T09:51:37.414Z,44.00
2018-03-15T09:54:07.584Z,44.80
2018-03-15T09:56:38.118Z,45.30
2018-03-15T09:59:08.578Z,46.30
2018-03-15T10:01:37.865Z,43.80
2018-03-15T10:04:08.273Z,44.40
2018-03-15T10:06:44.744Z,44.40
2018-03-15T10:09:14.128Z,44.80
2018-03-15T10:11:43.466Z,45.20
2018-03-15T10:14:13.018Z,43.80
2018-03-15T10:16:42.389Z,42.50
2018-03-15T10:19:11.821Z,42.10
2018-03-15T10:21:42.000Z,40.90
2018-03-15T10:24:11.495Z,41.20
2018-03-15T10:29:58.061Z,39.00
2018-03-15T10:32:27.829Z,39.70
2018-03-15T10:35:02.808Z,39.20
2018-03-15T10:37:48.536Z,38.60
2018-03-15T10:40:21.218Z,38.60
2018-03-15T10:45:42.881Z,40.70
2018-03-15T10:48:12.321Z,41.60
2018-03-15T10:50:41.637Z,39.20
2018-03-15T10:53:10.987Z,37.60
2018-03-15T10:55:48.109Z,36.90
2018-03-15T10:58:18.354Z,37.00
2018-03-15T11:00:53.378Z,36.20
2018-03-15T11:03:28.243Z,36.80
2018-03-15T11:06:03.126Z,35.20
2018-03-15T11:08:36.431Z,37.80
2018-03-15T11:11:05.860Z,36.20
2018-03-15T11:13:35.260Z,38.90
2018-03-15T11:16:05.264Z,38.60
2018-03-15T11:18:34.710Z,36.60
2018-03-15T11:21:04.330Z,36.00
2018-03-15T11:23:33.707Z,36.80
2018-03-15T11:26:16.937Z,37.10
2018-03-15T11:28:46.371Z,36.90
2018-03-15T11:31:15.838Z,36.90
2018-03-15T11:33:46.144Z,36.40
2018-03-15T11:36:16.234Z,36.60
2018-03-15T11:38:45.710Z,37.60
2018-03-15T11:41:15.135Z,36.80
2018-03-15T11:43:44.430Z,36.30
2018-03-15T11:46:13.831Z,37.40
2018-03-15T11:48:47.244Z,36.20
2018-03-15T11:51:16.545Z,37.50
2018-03-15T11:53:45.856Z,37.10
2018-03-15T11:56:15.318Z,37.90
2018-03-15T11:58:44.639Z,36.40
2018-03-15T12:01:14.040Z,38.50
2018-03-15T12:03:44.725Z,38.80
2018-03-15T12:06:16.889Z,38.70
2018-03-15T12:08:47.604Z,38.90
2018-03-15T12:11:17.034Z,38.70
2018-03-15T12:13:47.118Z,38.20
2018-03-15T12:16:16.428Z,38.40
2018-03-15T12:18:45.784Z,38.80
2018-03-15T12:21:15.952Z,39.90
2018-03-15T12:23:45.288Z,40.30
2018-03-15T12:26:16.293Z,39.40
2018-03-15T12:28:45.971Z,40.60
2018-03-15T12:31:15.409Z,40.10
2018-03-15T12:33:44.763Z,40.80
2018-03-15T12:36:14.112Z,41.40
2018-03-15T12:38:43.509Z,41.10
2018-03-15T12:41:15.035Z,40.60
2018-03-15T12:43:44.366Z,40.40
2018-03-15T12:46:13.858Z,40.80
2018-03-15T12:48:43.167Z,40.10
2018-03-15T12:51:12.465Z,40.30
2018-03-15T12:53:41.796Z,40.70
2018-03-15T12:56:11.888Z,41.00
2018-03-15T12:58:41.226Z,41.30
2018-03-15T13:01:10.732Z,40.80
2018-03-15T13:03:40.466Z,41.80
2018-03-15T13:06:15.298Z,41.60
2018-03-15T13:08:44.600Z,41.70
2018-03-15T13:11:13.843Z,41.20
2018-03-15T13:13:43.134Z,42.30
2018-03-15T13:16:12.442Z,41.70
2018-03-15T13:18:41.738Z,40.50
2018-03-15T13:21:11.055Z,41.60
2018-03-15T13:23:40.362Z,41.60
2018-03-15T13:26:09.621Z,41.70
2018-03-15T13:28:39.722Z,39.70
2018-03-15T13:31:08.984Z,39.80
2018-03-15T13:33:39.065Z,39.90
2018-03-15T13:36:08.405Z,39.90
2018-03-15T13:38:37.736Z,39.20
2018-03-15T13:41:06.999Z,40.00
2018-03-15T13:43:36.345Z,40.00
2018-03-15T13:46:05.616Z,39.80
2018-03-15T13:48:34.900Z,40.50
2018-03-15T13:51:04.244Z,40.10
2018-03-15T13:53:35.497Z,41.90
2018-03-15T13:56:05.620Z,40.90
2018-03-15T13:58:34.949Z,41.00
2018-03-15T14:01:04.222Z,39.50
2018-03-15T14:03:33.516Z,40.30
2018-03-15T14:06:03.244Z,41.00
2018-03-15T14:08:33.773Z,41.00
2018-03-15T14:11:03.103Z,40.20
2018-03-15T14:13:33.206Z,40.40
2018-03-15T14:16:02.641Z,41.50
2018-03-15T14:18:31.907Z,39.80
2018-03-15T14:21:01.457Z,39.80
2018-03-15T14:23:31.988Z,40.80
2018-03-15T14:26:02.109Z,41.00
2018-03-15T14:28:31.461Z,41.50
2018-03-15T14:31:01.522Z,41.10
2018-03-15T14:33:30.876Z,41.20
2018-03-15T14:36:00.171Z,41.10
2018-03-15T14:38:29.585Z,41.70
2018-03-15T14:40:58.920Z,41.40
2018-03-15T14:43:28.250Z,41.50
2018-03-15T14:45:57.548Z,42.30
2018-03-15T14:48:26.870Z,42.60
2018-03-15T14:50:56.181Z,42.30
2018-03-15T14:53:25.494Z,42.40
2018-03-15T14:55:55.557Z,42.60
2018-03-15T14:58:24.856Z,42.70
2018-03-15T15:00:54.158Z,42.80
2018-03-15T15:03:24.270Z,43.20
2018-03-15T15:05:54.138Z,43.30
2018-03-15T15:11:05.888Z,43.10
2018-03-15T15:13:35.181Z,42.90
2018-03-15T15:16:04.503Z,43.20
2018-03-15T15:18:45.700Z,42.90
2018-03-15T15:21:15.003Z,43.00
2018-03-15T15:26:18.643Z,41.90
2018-03-15T15:28:48.142Z,42.50
2018-03-15T15:31:17.439Z,41.90
2018-03-15T15:33:46.949Z,42.60
2018-03-15T15:36:16.351Z,42.40
2018-03-15T15:38:46.464Z,42.60
2018-03-15T15:41:15.798Z,42.00
2018-03-15T15:43:45.173Z,42.00
2018-03-15T15:46:14.505Z,42.00
2018-03-15T15:48:44.338Z,42.20
2018-03-15T15:51:14.170Z,42.20
2018-03-15T15:53:43.748Z,42.60
2018-03-15T15:56:13.942Z,42.30
2018-03-15T15:58:44.127Z,42.70
2018-03-15T16:01:14.329Z,42.50
2018-03-15T16:03:44.468Z,42.50
2018-03-15T16:06:13.807Z,42.50
2018-03-15T16:08:43.244Z,43.50
2018-03-15T16:11:12.528Z,44.20
2018-03-15T16:13:41.838Z,44.60
2018-03-15T16:16:11.138Z,44.90
2018-03-15T16:18:40.439Z,45.20
2018-03-15T16:21:11.464Z,45.40
2018-03-15T16:23:40.872Z,45.80
2018-03-15T16:26:10.525Z,45.40
2018-03-15T16:28:41.160Z,45.50
2018-03-15T16:31:10.882Z,45.90
2018-03-15T16:33:40.327Z,46.20
2018-03-15T16:36:09.844Z,45.60
2018-03-15T16:38:39.238Z,45.90
2018-03-15T16:41:09.052Z,46.00
2018-03-15T16:43:38.462Z,45.80
2018-03-15T16:46:08.682Z,46.40
2018-03-15T16:48:38.825Z,46.50
2018-03-15T16:51:08.266Z,46.40
2018-03-15T16:53:37.786Z,46.80
2018-03-15T16:56:08.050Z,47.10
2018-03-15T16:58:37.430Z,47.10
2018-03-15T17:01:06.745Z,47.60
2018-03-15T17:03:40.012Z,47.20
2018-03-15T17:06:10.333Z,47.60
2018-03-15T17:08:39.842Z,47.70
2018-03-15T17:11:09.277Z,48.20
2018-03-15T17:13:38.648Z,48.50
2018-03-15T17:16:07.905Z,48.80
2018-03-15T17:18:37.183Z,49.20
2018-03-15T17:21:06.713Z,50.50
2018-03-15T17:23:36.284Z,49.50
2018-03-15T17:26:05.731Z,50.30
2018-03-15T17:28:35.231Z,50.20
2018-03-15T17:31:04.563Z,50.40
2018-03-15T17:33:34.015Z,50.60
2018-03-15T17:36:03.372Z,50.50
2018-03-15T17:38:34.631Z,50.50
2018-03-15T17:41:03.920Z,50.20
2018-03-15T17:43:33.181Z,50.30
2018-03-15T17:46:03.283Z,51.00
2018-03-15T17:48:32.560Z,51.00
2018-03-15T17:51:02.633Z,51.50
2018-03-15T17:53:31.908Z,51.50
2018-03-15T17:56:01.972Z,51.60
2018-03-15T17:58:31.345Z,51.60
2018-03-15T18:01:01.445Z,51.70
2018-03-15T18:03:30.976Z,51.80
2018-03-15T18:06:00.284Z,51.80
2018-03-15T18:08:29.805Z,51.80
2018-03-15T18:11:00.196Z,51.70
2018-03-15T18:13:29.613Z,51.90
2018-03-15T18:15:58.958Z,52.20
2018-03-15T18:18:29.405Z,52.20
2018-03-15T18:20:58.740Z,52.40
2018-03-15T18:23:28.801Z,52.20
2018-03-15T18:25:58.107Z,52.30
2018-03-15T18:28:28.408Z,52.30
2018-03-15T18:30:57.733Z,51.80
2018-03-15T18:33:27.996Z,52.00
2018-03-15T18:35:58.071Z,52.00
2018-03-15T18:38:29.158Z,51.40
2018-03-15T18:40:59.228Z,51.60
2018-03-15T18:43:28.586Z,51.70
2018-03-15T18:45:57.972Z,53.50
2018-03-15T18:48:27.421Z,54.90
2018-03-15T18:50:56.736Z,55.90
2018-03-15T18:53:25.993Z,57.20
2018-03-15T18:55:55.550Z,59.10
2018-03-15T18:58:25.790Z,59.40
2018-03-15T19:00:56.332Z,60.30
2018-03-15T19:03:25.715Z,62.30
2018-03-15T19:05:55.113Z,64.00
2018-03-15T19:08:24.421Z,63.30
2018-03-15T19:10:53.697Z,63.60
2018-03-15T19:13:26.519Z,65.10
2018-03-15T19:15:55.871Z,64.30
2018-03-15T19:18:25.212Z,63.30
2018-03-15T19:20:55.098Z,65.10
2018-03-15T19:23:24.498Z,65.40
2018-03-15T19:25:53.870Z,66.70
2018-03-15T19:28:23.189Z,66.80
2018-03-15T19:30:52.518Z,68.20
2018-03-15T19:33:21.798Z,68.90
2018-03-15T19:35:52.125Z,69.00
2018-03-15T19:38:21.424Z,69.30
2018-03-15T19:40:50.868Z,71.10
2018-03-15T19:43:20.203Z,70.70
2018-03-15T19:45:49.598Z,71.20
2018-03-15T19:48:19.067Z,72.60
2018-03-15T19:50:48.454Z,72.20
2018-03-15T19:53:18.981Z,72.60
2018-03-15T19:55:49.246Z,73.00
2018-03-15T19:58:19.045Z,73.20
2018-03-15T20:00:48.530Z,74.90
2018-03-15T20:03:17.896Z,74.90
2018-03-15T20:05:51.532Z,74.10
2018-03-15T20:08:21.208Z,74.10
2018-03-15T20:10:50.743Z,75.10
2018-03-15T20:13:20.044Z,75.60
2018-03-15T20:15:49.592Z,75.70
2018-03-15T20:18:19.691Z,75.90
2018-03-15T20:20:48.999Z,75.90
2018-03-15T20:23:23.658Z,75.80
2018-03-15T20:25:53.711Z,75.50
2018-03-15T20:28:29.196Z,75.60
2018-03-15T20:30:58.663Z,75.50
2018-03-15T20:33:33.464Z,75.40
2018-03-15T20:36:02.924Z,74.80
2018-03-15T20:38:33.023Z,75.20
2018-03-15T20:41:12.572Z,75.10
2018-03-15T20:43:43.500Z,75.00
2018-03-15T20:46:18.465Z,74.80
2018-03-15T20:48:53.255Z,75.00
2018-03-15T20:51:22.614Z,75.00
2018-03-15T20:53:52.594Z,75.20
2018-03-15T20:56:25.783Z,76.50
2018-03-15T20:58:55.228Z,75.80
2018-03-15T21:01:25.428Z,73.80
2018-03-15T21:03:56.118Z,73.90
2018-03-15T21:06:25.759Z,73.10
2018-03-15T21:08:55.059Z,72.50
2018-03-15T21:11:29.006Z,73.70
2018-03-15T21:14:00.513Z,73.50
2018-03-15T21:16:30.655Z,74.30
2018-03-15T21:19:00.174Z,73.50
2018-03-15T21:21:29.853Z,73.80
2018-03-15T21:24:01.998Z,73.80
2018-03-15T21:26:33.233Z,74.30
2018-03-15T21:29:04.519Z,75.80
2018-03-15T21:31:35.768Z,76.20
2018-03-15T21:34:05.243Z,76.70
2018-03-15T21:36:36.231Z,77.40
2018-03-15T21:39:05.593Z,77.80
2018-03-15T21:41:35.873Z,80.00
2018-03-15T21:44:05.326Z,79.20
2018-03-15T21:46:34.944Z,80.10
2018-03-15T21:49:04.602Z,81.80
2018-03-15T21:51:35.191Z,82.30
2018-03-15T21:54:04.573Z,81.50
2018-03-15T21:56:34.195Z,80.90
2018-03-15T21:59:03.403Z,81.60
2018-03-15T22:01:32.737Z,81.70
2018-03-15T22:04:05.016Z,80.90
2018-03-15T22:06:34.341Z,81.10
2018-03-15T22:09:03.796Z,80.80
2018-03-15T22:11:35.217Z,80.70
2018-03-15T22:14:04.515Z,81.30
2018-03-15T22:16:33.813Z,81.20
2018-03-15T22:19:03.296Z,82.30
2018-03-15T22:21:32.567Z,82.40
2018-03-15T22:24:01.940Z,83.10
2018-03-15T22:26:32.277Z,83.70
2018-03-15T22:29:02.628Z,84.70
2018-03-15T22:31:31.940Z,84.80
2018-03-15T22:34:06.324Z,84.70
2018-03-15T22:39:37.081Z,83.90
2018-03-15T22:42:06.366Z,83.30
2018-03-15T22:44:35.674Z,82.80
2018-03-15T22:50:05.796Z,84.40
2018-03-15T22:52:45.971Z,85.10
2018-03-15T22:55:15.387Z,84.90
2018-03-15T22:57:45.395Z,84.40
2018-03-15T23:00:15.850Z,84.80
2018-03-15T23:02:46.073Z,85.20
2018-03-15T23:05:16.358Z,85.20
2018-03-15T23:07:46.429Z,84.00
2018-03-15T23:10:18.967Z,84.10
2018-03-15T23:12:48.398Z,86.60
2018-03-15T23:15:17.680Z,85.30
2018-03-15T23:17:47.795Z,90.60
2018-03-15T23:20:17.172Z,90.60
2018-03-15T23:22:46.477Z,93.40
2018-03-15T23:25:15.820Z,95.80
2018-03-15T23:27:45.138Z,96.80
2018-03-15T23:30:14.421Z,95.90
2018-03-15T23:32:43.793Z,91.80
2018-03-15T23:35:13.086Z,90.20
2018-03-15T23:37:42.491Z,91.00
2018-03-15T23:40:11.807Z,94.50
2018-03-15T23:42:41.097Z,94.60
2018-03-15T23:45:10.597Z,95.30
2018-03-15T23:47:39.949Z,94.70
2018-03-15T23:50:09.374Z,96.00
2018-03-15T23:52:38.652Z,95.70
2018-03-15T23:55:08.098Z,95.40
2018-03-15T23:57:45.737Z,96.20
